Time;durP1;ratioP1;P1;durP2;ratioP2;P2;SDS_P1;SDS_P2;PMS_P1;PMS_P2;Temp;Humidity;BMP_temperature;BMP_pressure;BME280_temperature;BME280_humidity;BME280_pressure;Samples;Min_cycle;Max_cycle;Signal;HPM_P1;HPM_P2
2022/07/18 00:02:14;;;;;;;12.68;6.95;;;;;;;27.48;42.04;101343.34;5032455;28;20500;-68
2022/07/18 00:04:42;;;;;;;4.80;4.38;;;;;;;27.50;42.18;101342.97;5031957;28;20060;-68
2022/07/18 00:07:10;;;;;;;7.60;5.50;;;;;;;27.52;42.13;101337.81;5031678;28;20061;-68
2022/07/18 00:09:42;;;;;;;13.40;7.53;;;;;;;27.46;42.48;101344.94;5031420;28;20064;-68
2022/07/18 00:12:10;;;;;;;7.68;5.53;;;;;;;27.42;43.09;101341.25;5031834;28;20484;-68
2022/07/18 00:14:39;;;;;;;9.57;8.20;;;;;;;27.55;42.63;101351.06;5030383;28;20038;-68
2022/07/18 00:17:08;;;;;;;8.82;6.85;;;;;;;27.39;42.70;101340.00;5031295;28;20038;-68
2022/07/18 00:19:36;;;;;;;6.10;4.78;;;;;;;27.35;42.67;101351.19;5032020;28;20049;-68
2022/07/18 00:22:05;;;;;;;8.85;6.47;;;;;;;27.35;42.83;101342.78;5030164;28;20056;-68
2022/07/18 00:24:34;;;;;;;6.68;5.50;;;;;;;27.30;43.08;101343.09;5031926;28;20054;-68
2022/07/18 00:27:02;;;;;;;5.85;4.55;;;;;;;27.23;43.15;101351.41;5032171;28;20065;-68
2022/07/18 00:29:30;;;;;;;6.57;5.03;;;;;;;27.19;44.40;101354.16;5060173;28;20049;-68
2022/07/18 00:31:57;;;;;;;12.25;7.45;;;;;;;27.12;43.57;101356.84;5031387;28;20045;-68
2022/07/18 00:34:25;;;;;;;6.15;4.65;;;;;;;27.19;43.65;101358.97;5031356;28;20033;-68
2022/07/18 00:36:53;;;;;;;10.73;7.40;;;;;;;27.07;44.29;101357.97;5031471;28;20094;-68
2022/07/18 00:39:21;;;;;;;8.07;5.65;;;;;;;27.14;43.65;101353.66;5031922;28;20045;-68
2022/07/18 00:41:50;;;;;;;7.60;5.43;;;;;;;27.03;44.13;101359.91;5036216;28;20693;-68
2022/07/18 00:44:23;;;;;;;5.35;4.32;;;;;;;27.04;44.21;101363.53;5035378;28;20385;-68
2022/07/18 00:46:53;;;;;;;7.88;4.72;;;;;;;27.08;44.48;101355.97;5035304;28;20488;-68
2022/07/18 00:49:22;;;;;;;5.18;4.18;;;;;;;27.17;43.92;101361.34;5033679;28;20057;-68
2022/07/18 00:51:50;;;;;;;7.03;4.45;;;;;;;27.02;43.80;101349.84;5035104;28;20037;-68
2022/07/18 00:54:19;;;;;;;6.65;5.90;;;;;;;27.02;43.41;101340.63;5034945;28;20042;-68
2022/07/18 00:56:49;;;;;;;6.85;5.38;;;;;;;27.05;43.54;101349.13;5034504;28;20064;-68
2022/07/18 00:59:17;;;;;;;9.85;7.32;;;;;;;27.03;44.30;101354.28;5033949;28;20045;-68
2022/07/18 01:01:47;;;;;;;7.45;5.13;;;;;;;27.12;43.55;101347.63;5034813;28;20488;-68
2022/07/18 01:04:22;;;;;;;11.60;9.10;;;;;;;27.14;43.70;101354.47;5034974;28;20041;-68
2022/07/18 01:06:51;;;;;;;7.38;5.63;;;;;;;27.12;43.04;101347.63;5033207;28;20052;-68
2022/07/18 01:09:19;;;;;;;5.60;4.97;;;;;;;27.14;42.94;101350.84;5034660;28;20107;-68
2022/07/18 01:11:47;;;;;;;6.35;4.65;;;;;;;27.22;42.94;101352.59;5035368;28;20389;-68
2022/07/18 01:14:16;;;;;;;7.30;5.40;;;;;;;27.21;43.23;101356.56;5034411;28;20046;-68
2022/07/18 01:16:44;;;;;;;5.50;4.82;;;;;;;27.23;43.63;101352.19;5034522;28;20540;-68
2022/07/18 01:19:12;;;;;;;5.03;4.53;;;;;;;27.19;43.44;101353.34;5034245;28;20045;-68
2022/07/18 01:21:40;;;;;;;5.88;5.22;;;;;;;27.23;43.02;101359.84;5030455;28;20052;-68
2022/07/18 01:24:08;;;;;;;7.07;5.15;;;;;;;27.30;42.86;101359.94;5034426;28;20057;-68
2022/07/18 01:26:36;;;;;;;7.03;5.35;;;;;;;27.31;42.87;101353.13;5034512;28;20041;-68
2022/07/18 01:29:04;;;;;;;6.55;5.75;;;;;;;27.24;43.10;101358.66;5034495;28;20492;-68
2022/07/18 01:31:33;;;;;;;5.75;5.18;;;;;;;27.11;43.23;101352.41;5034629;28;20052;-68
2022/07/18 01:34:02;;;;;;;6.72;5.22;;;;;;;26.98;44.06;101365.03;5034045;28;20518;-68
2022/07/18 01:36:30;;;;;;;5.88;4.35;;;;;;;26.89;44.35;101357.66;5034679;28;20511;-68
2022/07/18 01:38:58;;;;;;;6.60;4.80;;;;;;;27.08;43.80;101358.78;5034292;28;20049;-68
2022/07/18 01:42:07;;;;;;;5.60;4.97;;;;;;;27.09;43.33;101358.41;5034017;28;20049;-68
2022/07/18 01:44:46;;;;;;;7.20;4.78;;;;;;;27.08;43.94;101362.41;5034348;28;20053;-68
2022/07/18 01:50:58;;;;;;;7.57;4.60;;;;;;;27.14;42.65;101365.72;5029290;28;20052;-68
2022/07/18 01:53:27;;;;;;;5.65;3.70;;;;;;;27.15;41.72;101363.69;5031598;28;20054;-68
2022/07/18 01:55:56;;;;;;;5.47;4.07;;;;;;;27.24;42.25;101364.25;5028980;28;20408;-68
2022/07/18 01:58:24;;;;;;;5.15;3.80;;;;;;;27.23;41.01;101365.47;5032966;28;20064;-68
2022/07/18 02:00:52;;;;;;;8.32;3.70;;;;;;;27.21;41.00;101371.44;5033716;28;20413;-68
2022/07/18 02:03:20;;;;;;;4.18;3.30;;;;;;;27.21;40.68;101367.81;5033324;28;20117;-68
2022/07/18 02:05:48;;;;;;;4.07;3.08;;;;;;;27.22;40.69;101361.81;5033711;28;20041;-68
2022/07/18 02:08:16;;;;;;;3.75;3.45;;;;;;;27.18;40.59;101365.78;5033799;28;20045;-68
2022/07/18 02:10:43;;;;;;;4.05;3.17;;;;;;;27.22;40.54;101366.66;5019693;28;20033;-68
2022/07/18 02:13:11;;;;;;;3.38;2.80;;;;;;;27.15;40.61;101360.88;5033883;28;20041;-68
2022/07/18 02:15:39;;;;;;;3.30;3.00;;;;;;;27.16;40.42;101365.31;5034387;28;20045;-68
2022/07/18 02:18:07;;;;;;;3.10;2.72;;;;;;;27.15;39.85;101369.31;5033422;28;20061;-67
2022/07/18 02:20:36;;;;;;;3.33;2.85;;;;;;;27.16;40.33;101363.34;5032193;28;20060;-68
2022/07/18 02:23:04;;;;;;;3.10;2.75;;;;;;;27.19;39.59;101364.56;5033735;28;20068;-68
2022/07/18 02:25:32;;;;;;;4.55;2.95;;;;;;;27.15;39.58;101355.28;5032983;28;20037;-68
2022/07/18 02:28:01;;;;;;;3.80;3.10;;;;;;;27.19;39.21;101361.78;5033565;28;20068;-68
2022/07/18 02:30:29;;;;;;;4.63;3.28;;;;;;;27.10;39.21;101360.03;5033526;28;20068;-68
2022/07/18 02:33:00;;;;;;;2.95;2.72;;;;;;;27.05;39.21;101359.53;5033055;28;20070;-68
2022/07/18 02:35:28;;;;;;;3.40;2.88;;;;;;;27.03;38.50;101357.09;5032716;28;20053;-67
2022/07/18 02:37:55;;;;;;;3.25;2.90;;;;;;;27.07;39.42;101357.16;5033108;28;20045;-68
2022/07/18 02:40:23;;;;;;;6.15;2.83;;;;;;;27.03;38.23;101351.47;5032817;28;20046;-68
2022/07/18 02:42:51;;;;;;;5.30;3.40;;;;;;;27.17;37.88;101361.34;5033078;28;20046;-68
2022/07/18 02:45:19;;;;;;;4.22;3.33;;;;;;;27.18;37.27;101357.34;5032746;28;20056;-68
2022/07/18 02:47:47;;;;;;;4.28;3.38;;;;;;;27.14;37.49;101354.47;5032398;28;20155;-68
2022/07/18 02:50:15;;;;;;;3.63;3.28;;;;;;;27.15;37.67;101355.28;5032557;28;20060;-68
2022/07/18 02:52:43;;;;;;;4.20;3.80;;;;;;;27.19;37.40;101362.59;5032652;28;20496;-67
2022/07/18 02:55:13;;;;;;;5.90;3.97;;;;;;;27.05;37.66;101359.53;5033229;28;20049;-68
2022/07/18 02:57:41;;;;;;;6.35;3.75;;;;;;;27.01;37.86;101359.47;5032536;28;20052;-68
2022/07/18 03:00:12;;;;;;;5.30;4.13;;;;;;;27.03;37.54;101362.72;5032455;28;20053;-68
2022/07/18 03:02:40;;;;;;;4.55;4.13;;;;;;;26.88;37.70;101358.00;5031987;28;20121;-68
2022/07/18 03:05:09;;;;;;;5.18;4.15;;;;;;;26.91;38.26;101365.69;5032334;28;20049;-68
2022/07/18 03:07:37;;;;;;;5.43;4.40;;;;;;;26.90;37.78;101355.63;5032754;28;20049;-68
2022/07/18 03:10:05;;;;;;;4.63;4.18;;;;;;;26.82;38.01;101363.94;5032423;28;20042;-68
2022/07/18 03:12:33;;;;;;;5.65;4.95;;;;;;;26.82;38.30;101354.69;5031978;28;20049;-68
2022/07/18 03:15:01;;;;;;;5.72;4.65;;;;;;;26.82;38.83;101366.75;5032541;28;20041;-68
2022/07/18 03:17:29;;;;;;;7.80;4.78;;;;;;;26.81;38.87;101356.72;5031759;28;20050;-68
2022/07/18 03:19:57;;;;;;;7.25;5.18;;;;;;;26.83;38.70;101362.75;5032371;28;20488;-68
2022/07/18 03:22:25;;;;;;;6.15;4.88;;;;;;;26.81;38.64;101353.91;5032205;28;20064;-68
2022/07/18 03:24:53;;;;;;;5.75;4.90;;;;;;;26.78;38.79;101354.63;5031546;28;20042;-68
2022/07/18 03:27:21;;;;;;;5.60;4.80;;;;;;;26.86;40.12;101351.94;5031600;28;20050;-68
2022/07/18 03:29:49;;;;;;;5.75;4.97;;;;;;;26.89;38.88;101362.44;5031954;28;20049;-68
2022/07/18 03:32:17;;;;;;;6.47;5.25;;;;;;;26.83;39.11;101359.94;5031860;28;20049;-68
2022/07/18 03:34:45;;;;;;;7.03;5.18;;;;;;;26.86;39.16;101363.19;5031906;28;20045;-68
2022/07/18 03:37:12;;;;;;;7.88;4.88;;;;;;;26.98;39.68;101359.41;5031719;28;20046;-68
2022/07/18 03:39:41;;;;;;;5.55;4.95;;;;;;;26.94;38.73;101364.97;5032467;28;20053;-68
2022/07/18 03:42:09;;;;;;;6.38;4.97;;;;;;;26.88;38.98;101355.22;5031967;28;20055;-68
2022/07/18 03:44:36;;;;;;;5.68;4.72;;;;;;;26.90;39.13;101353.66;5031657;28;20404;-67
2022/07/18 03:47:04;;;;;;;5.45;4.88;;;;;;;26.86;40.17;101352.78;5019612;28;20045;-68
2022/07/18 03:49:32;;;;;;;5.35;4.50;;;;;;;26.84;39.18;101350.31;5028207;28;20065;-68
2022/07/18 03:52:00;;;;;;;5.05;4.55;;;;;;;26.88;38.66;101346.78;5023880;28;20053;-68
2022/07/18 03:54:28;;;;;;;4.72;4.28;;;;;;;26.89;39.14;101351.22;5031718;28;20052;-68
2022/07/18 03:56:56;;;;;;;7.38;5.22;;;;;;;26.91;38.72;101352.50;5031658;28;20052;-68
2022/07/18 03:59:24;;;;;;;5.45;4.20;;;;;;;26.89;38.55;101349.22;5032522;28;20045;-68
2022/07/18 04:01:52;;;;;;;6.20;5.45;;;;;;;26.87;39.31;101347.97;5032018;28;20056;-67
2022/07/18 04:04:21;;;;;;;5.75;5.00;;;;;;;26.93;39.39;101352.13;5031917;28;20049;-68
2022/07/18 04:06:49;;;;;;;6.55;5.03;;;;;;;26.98;38.55;101357.44;5031744;28;20512;-68
2022/07/18 04:09:17;;;;;;;7.15;4.95;;;;;;;26.95;38.75;101363.78;5031946;28;20476;-68
2022/07/18 04:11:45;;;;;;;7.20;5.20;;;;;;;26.94;39.27;101356.56;5032135;28;20053;-68
2022/07/18 04:14:13;;;;;;;5.43;4.78;;;;;;;26.93;39.07;101366.16;5031956;28;20044;-67
2022/07/18 04:16:41;;;;;;;8.13;4.25;;;;;;;26.92;38.46;101358.91;5036323;28;20407;-68
2022/07/18 04:19:09;;;;;;;6.10;5.07;;;;;;;26.95;38.78;101363.78;5035692;28;20041;-68
2022/07/18 04:21:37;;;;;;;11.93;5.50;;;;;;;27.08;38.74;101362.41;5035963;28;20037;-68
2022/07/18 04:24:05;;;;;;;7.32;5.05;;;;;;;27.01;39.10;101364.25;5033239;28;20411;-68
2022/07/18 04:26:33;;;;;;;7.45;5.72;;;;;;;27.02;39.15;101363.09;5029707;28;20060;-68
2022/07/18 04:29:01;;;;;;;6.28;4.90;;;;;;;27.06;39.21;101370.41;5035520;28;20060;-68
2022/07/18 04:31:29;;;;;;;5.80;4.85;;;;;;;27.07;38.85;101369.19;5035406;28;20461;-68
2022/07/18 04:33:58;;;;;;;5.38;4.88;;;;;;;27.11;39.17;101372.06;5035400;28;20488;-68
2022/07/18 04:36:27;;;;;;;7.10;5.40;;;;;;;27.12;38.88;101372.91;5035025;28;20072;-68
2022/07/18 04:38:55;;;;;;;6.38;4.90;;;;;;;27.05;39.42;101377.22;5034468;28;20046;-68
2022/07/18 04:41:28;;;;;;;6.80;4.53;;;;;;;27.17;39.19;101381.00;5035013;28;20045;-79
2022/07/18 04:44:09;;;;;;;5.70;4.78;;;;;;;27.19;39.34;101375.81;5018138;28;20054;-80
2022/07/18 04:46:37;;;;;;;8.02;5.47;;;;;;;27.40;38.44;101377.34;5012550;28;20046;-79
2022/07/18 04:49:08;;;;;;;5.13;4.50;;;;;;;27.48;38.35;101377.06;5016701;28;20049;-79
2022/07/18 04:51:36;;;;;;;7.35;4.57;;;;;;;27.47;38.24;101374.66;5016909;28;20050;-80
2022/07/18 04:54:04;;;;;;;6.90;5.05;;;;;;;27.60;37.90;101383.69;5013754;28;20057;-80
2022/07/18 04:56:33;;;;;;;5.10;4.63;;;;;;;27.56;37.94;101377.19;5027425;28;20388;-79
2022/07/18 04:59:01;;;;;;;5.18;4.20;;;;;;;27.35;38.03;101382.09;5022208;28;20104;-79
2022/07/18 05:01:28;;;;;;;5.10;4.47;;;;;;;27.43;37.88;101390.66;5017470;28;20045;-80
2022/07/18 05:03:56;;;;;;;6.90;3.90;;;;;;;27.45;37.76;101391.06;5030077;28;20041;-79
2022/07/18 05:06:24;;;;;;;5.68;3.80;;;;;;;27.41;38.05;101388.19;5045448;28;20589;-77
2022/07/18 05:08:52;;;;;;;4.95;3.92;;;;;;;27.29;38.11;101383.63;5035512;28;20045;-76
2022/07/18 05:11:20;;;;;;;5.10;3.35;;;;;;;27.35;38.07;101384.91;5033960;28;20835;-77
2022/07/18 05:13:48;;;;;;;3.63;3.33;;;;;;;27.35;37.75;101387.72;5063381;28;20396;-77
2022/07/18 05:16:16;;;;;;;4.20;3.60;;;;;;;27.27;38.29;101385.19;5034564;28;20037;-77
2022/07/18 05:18:44;;;;;;;4.35;3.88;;;;;;;27.43;38.38;101379.41;5034287;28;20041;-78
2022/07/18 05:21:13;;;;;;;5.68;3.53;;;;;;;27.54;37.78;101373.94;5034193;28;20049;-78
2022/07/18 05:23:41;;;;;;;3.50;3.08;;;;;;;27.50;37.85;101376.69;5034096;28;20049;-77
2022/07/18 05:26:09;;;;;;;5.93;3.90;;;;;;;27.57;37.78;101387.25;5033091;28;20050;-78
2022/07/18 05:28:37;;;;;;;4.40;3.40;;;;;;;27.73;37.66;101381.47;5034161;28;20045;-78
2022/07/18 05:31:05;;;;;;;3.00;2.72;;;;;;;27.80;37.61;101375.16;5034054;28;20037;-79
2022/07/18 05:33:33;;;;;;;3.88;3.15;;;;;;;27.73;38.00;101379.50;5034026;28;20060;-78
2022/07/18 05:36:04;;;;;;;3.20;2.90;;;;;;;27.86;37.20;101379.25;5033916;28;20427;-78
2022/07/18 05:38:32;;;;;;;3.72;3.33;;;;;;;27.97;37.46;101379.41;5030493;28;20514;-78
2022/07/18 05:41:00;;;;;;;3.45;3.10;;;;;;;28.01;37.39;101385.88;5044805;28;20408;-78
2022/07/18 05:43:29;;;;;;;5.50;3.03;;;;;;;27.86;36.75;101382.06;5045515;28;20063;-78
2022/07/18 05:45:58;;;;;;;2.95;2.55;;;;;;;27.81;37.15;101382.41;5049394;28;20041;-78
2022/07/18 05:48:26;;;;;;;3.40;3.10;;;;;;;27.85;37.14;101395.31;5051520;28;20506;-78
2022/07/18 05:50:54;;;;;;;3.58;2.58;;;;;;;27.61;37.50;101388.94;5049520;28;20052;-78
2022/07/18 05:53:23;;;;;;;2.90;2.60;;;;;;;27.69;37.18;101391.84;5047545;28;20041;-77
2022/07/18 05:55:51;;;;;;;3.30;3.00;;;;;;;27.88;37.04;101393.75;5050970;28;20071;-78
2022/07/18 05:58:18;;;;;;;2.95;2.70;;;;;;;27.79;37.04;101394.03;5049168;28;20443;-78
2022/07/18 06:00:46;;;;;;;4.82;2.85;;;;;;;27.92;37.41;101393.78;5051540;28;20048;-78
2022/07/18 06:03:14;;;;;;;2.70;2.50;;;;;;;28.04;37.03;101396.38;5050044;28;20048;-78
2022/07/18 06:05:42;;;;;;;3.92;3.13;;;;;;;27.85;37.28;101395.31;5047880;28;20041;-77
2022/07/18 06:08:10;;;;;;;3.17;2.90;;;;;;;27.98;37.74;101403.50;5048671;28;20044;-77
2022/07/18 06:10:39;;;;;;;4.07;2.95;;;;;;;28.07;37.19;101397.59;5048636;28;20728;-78
2022/07/18 06:13:14;;;;;;;5.40;3.10;;;;;;;28.10;37.08;101406.09;5050706;28;20041;-78
2022/07/18 06:15:43;;;;;;;2.90;2.60;;;;;;;28.12;36.73;101400.91;5050120;28;20037;-77
2022/07/18 06:18:11;;;;;;;3.42;2.80;;;;;;;27.98;37.23;101395.06;5048240;28;20060;-77
2022/07/18 06:20:39;;;;;;;3.38;2.53;;;;;;;28.11;36.49;101399.25;5048665;28;20072;-78
2022/07/18 06:23:07;;;;;;;3.92;3.03;;;;;;;27.98;37.25;101404.34;5047909;28;20040;-78
2022/07/18 06:25:36;;;;;;;3.78;2.80;;;;;;;28.06;37.20;101399.63;5044059;28;20487;-78
2022/07/18 06:28:04;;;;;;;3.08;2.78;;;;;;;27.99;37.37;101405.13;5049916;28;20503;-77
2022/07/18 06:30:32;;;;;;;5.63;2.88;;;;;;;28.23;37.06;101403.88;5048956;28;20041;-77
2022/07/18 06:33:03;;;;;;;4.03;3.38;;;;;;;28.22;36.67;101407.03;5049770;28;20053;-77
2022/07/18 06:35:31;;;;;;;3.47;2.75;;;;;;;28.17;36.94;101414.66;5038500;28;20053;-78
2022/07/18 06:38:01;;;;;;;4.88;3.25;;;;;;;28.23;36.98;101411.50;5031586;28;20054;-78
2022/07/18 06:40:29;;;;;;;3.35;2.92;;;;;;;28.04;37.09;101410.44;5032849;28;20400;-78
2022/07/18 06:42:56;;;;;;;4.20;3.17;;;;;;;28.15;36.55;101410.59;5032571;28;20530;-78
2022/07/18 06:45:26;;;;;;;3.65;3.30;;;;;;;28.24;36.50;101413.16;5032656;28;20603;-77
2022/07/18 06:47:54;;;;;;;3.28;2.72;;;;;;;27.87;36.86;101415.41;5032542;28;20049;-77
2022/07/18 06:50:22;;;;;;;3.67;2.90;;;;;;;27.77;37.07;101422.50;5032478;28;20045;-78
2022/07/18 06:52:50;;;;;;;4.60;2.40;;;;;;;27.96;36.48;101420.75;5032425;28;20053;-78
2022/07/18 06:55:18;;;;;;;4.63;3.50;;;;;;;28.14;36.56;101423.84;5032486;28;20045;-78
2022/07/18 06:57:46;;;;;;;3.38;2.40;;;;;;;27.98;36.43;101428.84;5032667;28;20053;-77
2022/07/18 07:00:15;;;;;;;2.92;2.63;;;;;;;28.10;35.95;101436.25;5032452;28;20044;-77
2022/07/18 07:02:46;;;;;;;5.10;2.17;;;;;;;28.01;36.31;101419.66;5032793;28;20045;-77
2022/07/18 07:05:16;;;;;;;2.60;2.28;;;;;;;28.08;36.17;101424.53;5032432;28;20052;-79
2022/07/18 07:07:45;;;;;;;7.00;2.53;;;;;;;28.02;35.75;101430.50;5032335;28;20045;-78
2022/07/18 07:10:17;;;;;;;3.33;2.42;;;;;;;28.15;35.76;101419.03;5032154;28;20053;-78
2022/07/18 07:12:48;;;;;;;3.88;2.70;;;;;;;28.24;35.98;101432.84;5032257;28;20391;-78
2022/07/18 07:15:20;;;;;;;3.03;2.70;;;;;;;28.30;35.55;101432.09;5032123;28;20045;-78
2022/07/18 07:17:48;;;;;;;5.18;2.60;;;;;;;28.51;34.79;101439.22;5032187;28;20542;-79
2022/07/18 07:20:19;;;;;;;4.93;3.67;;;;;;;28.46;34.67;101436.72;5031910;28;20049;-78
2022/07/18 07:22:53;;;;;;;5.70;3.90;;;;;;;28.50;34.82;101429.13;5032143;28;20056;-78
2022/07/18 07:25:22;;;;;;;;;;;;;;;28.64;34.44;101434.09;5032502;28;20507;-78
2022/07/18 07:27:51;;;;;;;8.82;4.20;;;;;;;28.74;34.38;101434.63;5032067;28;19921;-78
2022/07/18 07:30:19;;;;;;;4.53;4.13;;;;;;;28.64;34.34;101433.31;5031907;28;20061;-77
2022/07/18 07:32:48;;;;;;;7.15;4.68;;;;;;;28.59;34.28;101440.06;5031837;28;20397;-78
2022/07/18 07:35:16;;;;;;;5.28;4.38;;;;;;;28.46;34.81;101441.53;5031847;28;20048;-78
2022/07/18 07:37:51;;;;;;;6.53;4.57;;;;;;;28.45;35.29;101437.94;5031634;28;20045;-78
2022/07/18 07:40:21;;;;;;;5.32;4.78;;;;;;;28.56;34.60;101433.25;5063857;28;20400;-79
2022/07/18 07:42:49;;;;;;;8.18;4.30;;;;;;;28.88;33.90;101434.78;5031723;28;20060;-78
2022/07/18 07:45:18;;;;;;;7.57;4.68;;;;;;;28.94;33.23;101430.44;5031701;28;20056;-78
2022/07/18 07:47:46;;;;;;;4.65;4.18;;;;;;;28.83;33.63;101432.28;5031534;28;20052;-79
2022/07/18 07:50:14;;;;;;;4.70;4.30;;;;;;;28.80;33.32;101430.25;5030405;28;20049;-79
2022/07/18 07:52:42;;;;;;;4.57;4.00;;;;;;;28.95;33.21;101417.16;5031570;28;20457;-77
2022/07/18 07:55:10;;;;;;;6.50;4.07;;;;;;;29.05;32.78;101429.72;5031824;28;20037;-78
2022/07/18 07:57:38;;;;;;;5.15;3.97;;;;;;;28.63;32.77;101428.88;5031926;28;20053;-77
2022/07/18 08:00:09;;;;;;;6.45;4.20;;;;;;;28.74;33.04;101426.16;5031634;28;20063;-78
2022/07/18 08:03:03;;;;;;;4.47;4.03;;;;;;;29.07;33.46;101432.94;5031985;28;20037;-78
2022/07/18 08:05:34;;;;;;;6.07;4.05;;;;;;;29.18;33.45;101430.25;5031714;28;20053;-78
2022/07/18 08:08:03;;;;;;;5.63;4.07;;;;;;;28.86;33.65;101434.38;5031879;28;20045;-78
2022/07/18 08:10:31;;;;;;;4.47;3.85;;;;;;;29.00;33.68;101432.91;5031573;28;20045;-78
2022/07/18 08:12:59;;;;;;;3.92;3.00;;;;;;;29.05;33.76;101432.53;5031750;28;20057;-79
2022/07/18 08:15:27;;;;;;;5.38;3.75;;;;;;;29.23;33.73;101427.09;5030474;28;20046;-78
2022/07/18 08:17:55;;;;;;;5.57;3.70;;;;;;;29.48;33.22;101432.94;5031745;28;20121;-78
2022/07/18 08:20:23;;;;;;;5.03;3.55;;;;;;;29.03;33.44;101435.75;5031494;28;20523;-78
2022/07/18 08:22:55;;;;;;;3.55;3.20;;;;;;;28.87;33.90;101424.72;5031665;28;20041;-78
2022/07/18 08:25:24;;;;;;;3.92;3.35;;;;;;;28.94;33.07;101436.06;5031576;28;20053;-78
2022/07/18 08:27:52;;;;;;;6.05;3.75;;;;;;;28.96;32.95;101428.06;5029950;28;20057;-78
2022/07/18 08:30:21;;;;;;;3.95;3.22;;;;;;;29.30;32.31;101427.13;5031642;28;20056;-78
2022/07/18 08:32:49;;;;;;;3.30;3.00;;;;;;;29.35;32.13;101437.22;5031484;28;20053;-78
2022/07/18 08:35:17;;;;;;;2.75;2.45;;;;;;;29.22;32.52;101439.53;5031488;28;20041;-78
2022/07/18 08:37:45;;;;;;;2.83;2.63;;;;;;;29.23;32.33;101432.72;5031391;28;20042;-78
2022/07/18 08:40:14;;;;;;;5.90;2.30;;;;;;;29.41;32.16;101438.50;5031406;28;20061;-79
2022/07/18 08:42:42;;;;;;;3.28;2.97;;;;;;;29.42;32.68;101431.66;5031379;28;20045;-78
2022/07/18 08:45:30;;;;;;;3.22;2.80;;;;;;;29.68;32.32;101431.88;5031494;28;20049;-78
2022/07/18 08:47:58;;;;;;;2.90;2.60;;;;;;;29.85;32.01;101424.72;5029548;28;20048;-79
2022/07/18 08:50:26;;;;;;;3.83;2.60;;;;;;;30.02;31.83;101429.66;5031216;28;20045;-78
2022/07/18 08:52:56;;;;;;;5.38;3.13;;;;;;;30.06;31.54;101423.22;5029594;28;20496;-78
2022/07/18 08:55:24;;;;;;;5.43;3.15;;;;;;;29.99;32.05;101424.81;5031238;28;20050;-78
2022/07/18 08:57:54;;;;;;;8.70;3.67;;;;;;;30.07;31.91;101424.84;5031382;28;20416;-78
2022/07/18 09:00:22;;;;;;;6.10;3.47;;;;;;;30.25;31.42;101422.94;5031437;28;20396;-78
2022/07/18 09:02:58;;;;;;;6.57;4.05;;;;;;;30.07;30.94;101422.03;5034906;28;20041;-79
2022/07/18 09:05:28;;;;;;;4.47;4.05;;;;;;;30.04;31.50;101420.78;5034830;28;20065;-76
2022/07/18 09:08:16;;;;;;;;;;;;;;;30.15;31.29;101432.19;5034136;28;20048;-78
2022/07/18 09:10:52;;;;;;;5.30;4.13;;;;;;;30.30;31.07;101427.41;5034785;28;19928;-77
2022/07/18 09:13:42;;;;;;;6.38;5.38;;;;;;;30.21;31.52;101430.59;5034826;28;20056;-77
2022/07/18 09:16:12;;;;;;;6.03;5.43;;;;;;;30.44;31.30;101429.47;5034739;28;20511;-77
2022/07/18 09:18:47;;;;;;;8.35;4.78;;;;;;;30.49;31.06;101431.91;5033271;28;20045;-77
2022/07/18 09:21:22;;;;;;;6.40;5.32;;;;;;;30.12;31.38;101438.59;5034640;28;20050;-78
2022/07/18 09:23:53;;;;;;;6.78;5.25;;;;;;;30.14;31.78;101425.72;5034364;28;20421;-78
2022/07/18 09:26:41;;;;;;;5.97;4.88;;;;;;;30.39;31.61;101433.47;5034551;28;20392;-78
2022/07/18 09:29:15;;;;;;;5.32;4.25;;;;;;;30.13;32.11;101431.75;5034192;28;20050;-78
2022/07/18 09:32:04;;;;;;;5.28;4.72;;;;;;;30.58;31.91;101432.34;5034366;28;20048;-78
2022/07/18 09:34:37;;;;;;;6.05;4.40;;;;;;;30.70;31.06;101424.75;5034197;28;20056;-78
2022/07/18 09:37:11;;;;;;;7.57;4.45;;;;;;;30.65;31.91;101422.28;5033078;28;20052;-78
2022/07/18 09:39:39;;;;;;;7.60;4.63;;;;;;;30.72;31.43;101427.97;5034154;28;20054;-78
2022/07/18 09:42:17;;;;;;;6.05;4.13;;;;;;;30.43;30.95;101437.13;5034195;28;20037;-78
2022/07/18 09:45:01;;;;;;;5.10;3.88;;;;;;;30.81;30.96;101427.56;5034245;28;20050;-77
2022/07/18 09:47:29;;;;;;;6.47;3.88;;;;;;;31.01;31.52;101424.38;5033998;28;20046;-78
2022/07/18 09:49:57;;;;;;;4.97;3.60;;;;;;;31.02;31.00;101431.66;5032651;28;20038;-78
2022/07/18 09:52:25;;;;;;;5.07;3.60;;;;;;;30.86;30.95;101434.84;5033860;28;20046;-77
2022/07/18 09:55:05;;;;;;;4.20;3.60;;;;;;;31.31;30.56;101424.00;5033965;28;20061;-77
2022/07/18 09:57:33;;;;;;;7.80;3.97;;;;;;;31.19;30.65;101421.56;5033987;28;20037;-78
2022/07/18 10:00:02;;;;;;;5.32;3.85;;;;;;;31.25;31.08;101417.13;5033735;28;20045;-77
2022/07/18 10:02:39;;;;;;;5.28;4.00;;;;;;;31.33;31.05;101415.94;5033895;28;20427;-78
2022/07/18 10:05:08;;;;;;;5.00;3.70;;;;;;;31.32;31.09;101425.63;5033849;28;20048;-78
2022/07/18 10:07:37;;;;;;;5.22;3.78;;;;;;;30.89;31.85;101419.94;5033798;28;20093;-78
2022/07/18 10:10:06;;;;;;;3.80;3.38;;;;;;;30.95;31.52;101421.16;5033483;28;20060;-79
2022/07/18 10:12:34;;;;;;;4.07;3.60;;;;;;;31.21;31.24;101413.47;5033668;28;20057;-78
2022/07/18 10:15:02;;;;;;;3.85;2.95;;;;;;;31.31;31.50;101429.66;5033577;28;20052;-78
2022/07/18 10:17:31;;;;;;;4.40;3.60;;;;;;;31.60;31.02;101414.69;5032780;28;20045;-77
2022/07/18 10:20:07;;;;;;;5.07;3.70;;;;;;;31.89;30.61;101425.97;5032613;28;20400;-76
2022/07/18 10:22:38;;;;;;;3.83;3.53;;;;;;;31.89;30.69;101414.66;5031573;28;20045;-77
2022/07/18 10:25:11;;;;;;;4.82;3.28;;;;;;;32.04;30.14;101429.56;5033483;28;20049;-79
2022/07/18 10:28:06;;;;;;;2.85;2.60;;;;;;;31.68;30.97;101421.97;5033195;28;20052;-78
2022/07/18 10:30:35;;;;;;;;;;;;;;;31.68;31.31;101409.81;5033566;28;20069;-78
2022/07/18 10:33:24;;;;;;;4.05;3.17;;;;;;;31.84;31.09;101412.22;5031773;28;19921;-78
2022/07/18 10:36:01;;;;;;;3.00;2.80;;;;;;;31.83;31.15;101405.75;5032998;28;20060;-77
2022/07/18 10:38:59;;;;;;;3.38;2.92;;;;;;;32.01;31.01;101400.06;5031255;28;20056;-78
2022/07/18 10:41:27;;;;;;;4.80;3.60;;;;;;;31.78;31.32;101406.16;5019916;28;20053;-78
2022/07/18 10:43:55;;;;;;;7.32;3.42;;;;;;;31.99;30.94;101404.50;5033118;28;20042;-78
2022/07/18 10:46:23;;;;;;;4.55;2.97;;;;;;;32.23;30.51;101396.31;5032818;28;20052;-79
2022/07/18 10:48:53;;;;;;;4.47;3.30;;;;;;;32.41;30.88;101396.28;5031354;28;20045;-78
2022/07/18 10:51:29;;;;;;;3.08;2.78;;;;;;;32.31;31.21;101398.72;5032915;28;20399;-78
2022/07/18 10:54:04;;;;;;;5.32;2.80;;;;;;;32.31;30.77;101395.88;5032818;28;20056;-79
2022/07/18 10:56:38;;;;;;;3.15;2.67;;;;;;;32.33;30.94;101392.66;5032658;28;20045;-79
2022/07/18 10:59:20;;;;;;;4.18;2.85;;;;;;;32.54;30.81;101385.28;5031691;28;20053;-78
2022/07/18 11:01:53;;;;;;;3.20;2.90;;;;;;;32.31;30.78;101395.09;5032520;28;20053;-77
2022/07/18 11:04:30;;;;;;;3.72;3.22;;;;;;;32.15;31.10;101384.22;5031566;28;20037;-77
2022/07/18 11:07:05;;;;;;;3.45;3.15;;;;;;;32.40;31.43;101403.13;5032459;28;20076;-77
2022/07/18 11:09:45;;;;;;;3.47;3.17;;;;;;;32.07;31.84;101391.97;5032640;28;20052;-77
2022/07/18 11:12:23;;;;;;;3.75;3.15;;;;;;;32.37;30.86;101378.47;5064317;28;20045;-78
2022/07/18 11:15:04;;;;;;;3.88;3.15;;;;;;;32.56;30.55;101372.28;5032433;28;20045;-78
2022/07/18 11:18:01;;;;;;;3.53;3.13;;;;;;;32.87;31.03;101373.69;5032481;28;20045;-78
2022/07/18 11:20:33;;;;;;;3.22;2.80;;;;;;;32.89;31.34;101383.41;5032236;28;20053;-78
2022/07/18 11:23:04;;;;;;;3.30;2.88;;;;;;;33.02;31.49;101372.41;5031991;28;20045;-79
2022/07/18 11:25:32;;;;;;;3.55;2.80;;;;;;;32.82;31.81;101364.44;5032201;28;20053;-76
2022/07/18 11:28:20;;;;;;;4.85;2.75;;;;;;;32.82;31.54;101360.78;5032170;28;20041;-77
2022/07/18 11:31:08;;;;;;;2.75;2.55;;;;;;;33.11;31.29;101363.41;5032083;28;20048;-77
2022/07/18 11:33:41;;;;;;;3.00;2.80;;;;;;;33.02;30.92;101372.41;5032313;28;20061;-78
2022/07/18 11:36:11;;;;;;;4.45;2.80;;;;;;;33.30;31.32;101362.03;5032049;28;20045;-79
2022/07/18 11:38:47;;;;;;;2.70;2.50;;;;;;;33.25;31.12;101356.81;5030994;28;20056;-78
2022/07/18 11:41:16;;;;;;;3.92;2.80;;;;;;;33.26;30.50;101349.13;5031871;28;20480;-78
2022/07/18 11:43:45;;;;;;;3.40;2.90;;;;;;;33.32;30.57;101370.13;5030984;28;20049;-78
2022/07/18 11:46:16;;;;;;;2.95;2.72;;;;;;;33.17;30.69;101349.59;5032009;28;20108;-78